Time;durP1;ratioP1;P1;durP2;ratioP2;P2;SDS_P1;SDS_P2;PMS_P1;PMS_P2;Temp;Humidity;BMP_temperature;BMP_pressure;BME280_temperature;BME280_humidity;BME280_pressure;Samples;Min_cycle;Max_cycle;Signal;HPM_P1;HPM_P2
2021/04/14 00:02:07;;;;;;;7.43;3.00;;;;;;;7.96;62.39;101523.09;5011539;28;19917;-86
2021/04/14 00:04:54;;;;;;;3.97;2.72;;;;;;;7.99;61.83;101515.22;5010420;28;20036;-86
2021/04/14 00:07:40;;;;;;;3.67;2.67;;;;;;;7.87;62.03;101513.94;5008526;28;20040;-86
2021/04/14 00:10:28;;;;;;;3.13;2.35;;;;;;;8.05;61.46;101518.69;5014085;28;20056;-86
2021/04/14 00:13:19;;;;;;;4.65;2.58;;;;;;;7.67;61.52;101507.47;5009590;28;20029;-86
2021/04/14 00:16:05;;;;;;;4.68;2.97;;;;;;;7.54;62.22;101512.69;5013710;28;20057;-86
2021/04/14 00:18:50;;;;;;;4.22;2.20;;;;;;;7.49;62.67;101509.97;5011399;28;20032;-87
2021/04/14 00:21:36;;;;;;;4.53;3.20;;;;;;;7.49;62.38;101520.81;5011665;28;20048;-86
2021/04/14 00:24:20;;;;;;;5.68;2.40;;;;;;;7.38;62.80;101502.97;5009164;28;20052;-86
2021/04/14 00:27:06;;;;;;;3.08;2.42;;;;;;;7.55;62.76;101528.66;5012774;28;20041;-87
2021/04/14 00:29:50;;;;;;;;;;;;;;;7.55;62.99;101525.13;5009098;28;20048;-86
2021/04/14 00:32:36;;;;;;;4.97;3.53;;;;;;;7.31;62.74;101511.41;5012995;28;19913;-86
2021/04/14 00:35:23;;;;;;;10.10;3.03;;;;;;;7.40;62.62;101517.88;5000931;28;20053;-86
2021/04/14 00:38:11;;;;;;;7.30;3.95;;;;;;;7.42;62.70;101520.28;5001163;28;20056;-88
2021/04/14 00:41:09;;;;;;;6.72;3.67;;;;;;;7.41;62.31;101521.38;4987125;28;20037;-86
2021/04/14 00:43:54;;;;;;;6.22;3.83;;;;;;;7.47;62.91;101512.97;4995027;28;20064;-86
2021/04/14 00:46:39;;;;;;;3.20;2.90;;;;;;;7.36;63.98;101513.28;5003660;28;20057;-86
2021/04/14 00:49:24;;;;;;;4.97;3.92;;;;;;;7.58;63.07;101509.13;5004491;28;20056;-85
2021/04/14 00:52:10;;;;;;;4.63;3.88;;;;;;;7.53;63.39;101521.88;5003148;28;20053;-86
2021/04/14 00:54:55;;;;;;;3.55;2.65;;;;;;;7.40;63.90;101517.88;5020256;28;20036;-87
2021/04/14 00:57:40;;;;;;;;;;;;;;;7.45;64.37;101509.72;5000606;28;20155;-87
2021/04/14 01:00:39;;;;;;;5.78;4.03;;;;;;;7.55;64.33;101507.00;5003171;28;19897;-86
2021/04/14 01:03:32;;;;;;;4.30;3.30;;;;;;;7.48;62.89;101503.75;5006055;28;20125;-86
2021/04/14 01:06:24;;;;;;;5.70;3.97;;;;;;;7.63;62.80;101506.41;4984824;28;20033;-86
2021/04/14 01:09:09;;;;;;;4.43;3.30;;;;;;;7.60;62.96;101509.69;4996908;28;20053;-86
2021/04/14 01:11:57;;;;;;;9.93;3.22;;;;;;;7.58;62.87;101490.19;4988678;28;20049;-86
2021/04/14 01:14:42;;;;;;;6.15;4.20;;;;;;;7.45;62.86;101507.03;4993236;28;20048;-87
2021/04/14 01:17:27;;;;;;;7.88;3.90;;;;;;;7.54;62.51;101494.53;5004899;28;20053;-86
2021/04/14 01:20:13;;;;;;;5.53;2.65;;;;;;;7.48;63.11;101501.06;5009320;28;20033;-86
2021/04/14 01:22:58;;;;;;;4.95;3.63;;;;;;;7.65;62.61;101498.03;5006743;28;20048;-85
2021/04/14 01:25:43;;;;;;;3.60;2.70;;;;;;;7.41;62.78;101495.13;5005738;28;20057;-87
2021/04/14 01:28:35;;;;;;;5.38;3.83;;;;;;;7.31;62.54;101495.16;5005249;28;20044;-86
2021/04/14 01:31:34;;;;;;;6.15;4.03;;;;;;;7.31;62.82;101497.88;5000257;28;20537;-87
2021/04/14 01:34:19;;;;;;;5.28;3.75;;;;;;;7.30;62.48;101491.66;5014712;28;20065;-85
2021/04/14 01:37:05;;;;;;;6.05;4.32;;;;;;;7.30;62.61;101496.25;5005844;28;20037;-86
2021/04/14 01:39:50;;;;;;;6.75;3.92;;;;;;;7.13;63.43;101495.72;5006445;28;20052;-87
2021/04/14 01:42:35;;;;;;;5.93;2.90;;;;;;;7.26;62.71;101489.75;5004640;28;20045;-87
2021/04/14 01:45:22;;;;;;;;;;;;;;;7.36;62.92;101492.44;4990397;28;20060;-86
2021/04/14 01:48:07;;;;;;;7.07;4.00;;;;;;;7.19;63.37;101484.63;4992338;28;19897;-86
2021/04/14 01:50:53;;;;;;;7.38;3.95;;;;;;;7.32;63.72;101485.94;5004175;28;20049;-86
2021/04/14 01:53:37;;;;;;;4.72;3.25;;;;;;;7.04;63.39;101468.44;5003053;28;20041;-86
2021/04/14 01:56:23;;;;;;;5.65;3.55;;;;;;;7.06;63.48;101470.88;4988254;28;20025;-87
2021/04/14 01:59:10;;;;;;;5.90;3.95;;;;;;;7.17;63.67;101473.25;5000108;28;20080;-85
2021/04/14 02:01:55;;;;;;;7.55;4.18;;;;;;;7.09;63.18;101473.03;5012384;28;20060;-87
2021/04/14 02:04:40;;;;;;;4.35;3.10;;;;;;;6.83;62.77;101459.53;5005386;28;20028;-86
2021/04/14 02:07:26;;;;;;;6.07;4.05;;;;;;;6.91;62.51;101474.38;5002051;28;20044;-86
2021/04/14 02:10:14;;;;;;;6.28;3.70;;;;;;;6.80;62.17;101464.69;4999226;28;20029;-86
2021/04/14 02:13:01;;;;;;;5.55;4.10;;;;;;;6.63;62.29;101462.25;4999825;28;20049;-86
2021/04/14 02:15:48;;;;;;;5.50;3.67;;;;;;;6.67;62.67;101468.72;5003530;28;20029;-86
2021/04/14 02:18:33;;;;;;;4.93;3.67;;;;;;;6.56;63.41;101461.69;5005300;28;20044;-87
2021/04/14 02:21:22;;;;;;;4.10;3.10;;;;;;;6.64;63.70;101454.94;4987060;28;20033;-85
2021/04/14 02:24:07;;;;;;;7.72;4.90;;;;;;;6.85;62.89;101454.69;5004552;28;20032;-86
2021/04/14 02:26:52;;;;;;;6.53;3.28;;;;;;;6.82;62.92;101460.59;5005366;28;20045;-86
2021/04/14 02:29:38;;;;;;;5.07;3.60;;;;;;;6.77;62.58;101439.00;5006887;28;20544;-86
2021/04/14 02:32:23;;;;;;;3.47;2.67;;;;;;;6.77;62.18;101460.63;5003535;28;20052;-86
2021/04/14 02:35:08;;;;;;;3.67;2.75;;;;;;;6.75;62.33;101456.56;5008148;28;20048;-85
2021/04/14 02:37:54;;;;;;;9.18;4.40;;;;;;;6.67;62.45;101457.09;5007734;28;20037;-86
2021/04/14 02:40:39;;;;;;;5.75;3.10;;;;;;;6.64;62.96;101461.16;5004905;28;20032;-85
2021/04/14 02:43:24;;;;;;;7.47;3.20;;;;;;;6.41;63.96;101446.28;5008571;28;20044;-86
2021/04/14 02:46:10;;;;;;;7.13;4.18;;;;;;;6.44;63.05;101453.06;5007856;28;20053;-85
2021/04/14 02:48:55;;;;;;;4.57;3.33;;;;;;;6.37;63.33;101450.63;5005183;28;20053;-85
2021/04/14 02:51:40;;;;;;;3.88;2.97;;;;;;;6.28;63.49;101432.50;4993787;28;20049;-87
2021/04/14 02:54:25;;;;;;;4.72;2.95;;;;;;;6.31;63.36;101442.75;5003674;28;20040;-86
2021/04/14 02:57:11;;;;;;;6.70;4.25;;;;;;;6.45;63.34;101450.06;4991277;28;20024;-86
2021/04/14 02:59:56;;;;;;;7.60;3.90;;;;;;;6.26;64.38;101446.28;5008084;28;20052;-85
2021/04/14 03:02:41;;;;;;;7.32;4.40;;;;;;;6.23;64.27;101448.72;5006790;28;20040;-85
2021/04/14 03:05:31;;;;;;;6.53;3.83;;;;;;;6.26;64.04;101448.16;4997678;28;20053;-85
2021/04/14 03:08:15;;;;;;;8.40;4.60;;;;;;;6.18;64.27;101446.81;4967299;28;20052;-87
2021/04/14 03:11:00;;;;;;;6.80;3.30;;;;;;;6.16;64.83;101445.44;4985402;28;20053;-86
2021/04/14 03:13:46;;;;;;;5.03;3.38;;;;;;;6.15;64.77;101444.63;4983941;28;20045;-86
2021/04/14 03:16:31;;;;;;;7.40;4.30;;;;;;;6.06;64.93;101431.94;5003520;28;20057;-85
2021/04/14 03:19:16;;;;;;;4.55;3.20;;;;;;;6.24;64.29;101442.25;5007004;28;20053;-87
2021/04/14 03:22:02;;;;;;;6.15;3.83;;;;;;;6.28;64.34;101437.91;5005198;28;20052;-86
2021/04/14 03:24:47;;;;;;;7.18;4.47;;;;;;;6.31;63.82;101445.47;5003608;28;20041;-85
2021/04/14 03:27:32;;;;;;;9.20;4.10;;;;;;;6.36;64.19;101435.47;5003540;28;20041;-86
2021/04/14 03:30:17;;;;;;;5.35;2.75;;;;;;;6.41;63.67;101426.56;5019804;28;20033;-86
2021/04/14 03:33:02;;;;;;;9.63;4.97;;;;;;;6.44;63.76;101434.16;5001675;28;20044;-86
2021/04/14 03:35:47;;;;;;;5.40;3.40;;;;;;;6.37;63.47;101430.91;5005815;28;20041;-84
2021/04/14 03:38:32;;;;;;;3.83;3.15;;;;;;;6.39;63.41;101434.16;4999518;28;20045;-87
2021/04/14 03:41:18;;;;;;;10.05;3.60;;;;;;;6.29;63.75;101423.34;4997099;28;20041;-86
2021/04/14 03:44:03;;;;;;;6.78;4.03;;;;;;;6.27;63.75;101428.19;5015663;28;20033;-86
2021/04/14 03:46:48;;;;;;;8.30;4.57;;;;;;;6.27;64.17;101426.31;5003414;28;20553;-87
2021/04/14 03:49:33;;;;;;;7.20;4.55;;;;;;;6.26;63.72;101437.34;5003133;28;20037;-86
2021/04/14 03:52:20;;;;;;;8.30;4.10;;;;;;;6.07;64.44;101422.75;5005524;28;20048;-87
2021/04/14 03:55:07;;;;;;;7.30;4.88;;;;;;;6.21;64.44;101426.56;4984898;28;20053;-86
2021/04/14 03:57:53;;;;;;;6.75;5.20;;;;;;;6.01;64.69;101417.34;5002521;28;20049;-86
2021/04/14 04:00:38;;;;;;;6.88;3.88;;;;;;;6.25;63.61;101424.94;5006599;28;20053;-86
2021/04/14 04:03:25;;;;;;;6.90;4.47;;;;;;;6.05;64.08;101417.63;5004012;28;20056;-87
2021/04/14 04:06:11;;;;;;;11.45;5.85;;;;;;;6.14;63.44;101409.81;4998500;28;20064;-86
2021/04/14 04:08:56;;;;;;;8.23;5.90;;;;;;;6.15;64.01;101425.72;5006094;28;20045;-86
2021/04/14 04:11:41;;;;;;;;;;;;;;;6.08;63.70;101421.69;4991795;28;20029;-87
2021/04/14 04:14:28;;;;;;;8.98;5.00;;;;;;;5.93;64.25;101420.59;4992777;28;19901;-87
2021/04/14 04:17:16;;;;;;;10.35;5.65;;;;;;;5.94;64.13;101422.19;5001602;28;20036;-85
2021/04/14 04:20:01;;;;;;;9.98;5.30;;;;;;;6.15;63.68;101419.53;4989250;28;20041;-86
2021/04/14 04:22:46;;;;;;;4.97;3.97;;;;;;;6.04;63.79;101420.59;5002225;28;20036;-85
2021/04/14 04:25:33;;;;;;;10.68;5.68;;;;;;;5.91;63.00;101419.22;5004012;28;20036;-86
2021/04/14 04:28:21;;;;;;;12.35;6.00;;;;;;;5.82;64.38;101418.91;4997362;28;20040;-86
2021/04/14 04:31:06;;;;;;;7.97;5.75;;;;;;;5.88;63.78;101417.88;5008151;28;20032;-86
2021/04/14 04:33:51;;;;;;;11.80;6.13;;;;;;;5.88;64.49;101411.66;5008828;28;20061;-87
2021/04/14 04:36:36;;;;;;;5.78;3.80;;;;;;;5.87;64.41;101405.47;5009898;28;20040;-87
2021/04/14 04:39:22;;;;;;;13.00;6.30;;;;;;;5.93;64.28;101409.78;5009209;28;20049;-86
2021/04/14 04:42:07;;;;;;;;;;;;;;;5.98;63.91;101415.19;5005349;28;20064;-87
2021/04/14 04:44:53;;;;;;;8.20;5.75;;;;;;;5.95;62.68;101406.81;4996069;28;19914;-89
2021/04/14 04:47:40;;;;;;;9.50;4.90;;;;;;;6.00;62.58;101415.72;4996960;28;20049;-89
2021/04/14 04:50:28;;;;;;;10.75;5.38;;;;;;;6.06;60.51;101418.44;5001691;28;20053;-88
2021/04/14 04:53:17;;;;;;;10.02;4.72;;;;;;;6.10;58.92;101420.31;5014410;28;20532;-88
2021/04/14 04:56:02;;;;;;;12.98;8.00;;;;;;;6.15;58.09;101416.81;5002343;28;20045;-89
2021/04/14 04:58:47;;;;;;;;;;;;;;;6.28;55.24;101429.81;4998633;28;20049;-88
2021/04/14 05:01:32;;;;;;;60.50;26.20;;;;;;;6.32;53.52;101425.50;5001183;28;19914;-79
2021/04/14 05:04:18;;;;;;;33.10;15.45;;;;;;;6.45;52.75;101422.25;5006509;28;20398;-79
2021/04/14 05:07:02;;;;;;;10.32;5.47;;;;;;;6.47;51.97;101425.50;4988875;28;20053;-80
2021/04/14 05:09:47;;;;;;;4.88;3.15;;;;;;;6.62;50.38;101440.88;4987387;28;20062;-80
2021/04/14 05:12:33;;;;;;;5.63;3.08;;;;;;;6.70;50.03;101451.16;4997589;28;20069;-79
2021/04/14 05:15:30;;;;;;;7.60;3.95;;;;;;;6.82;50.01;101455.19;4986079;28;20046;-78
2021/04/14 05:18:16;;;;;;;4.95;3.85;;;;;;;6.79;53.30;101460.34;4983794;28;20127;-80
2021/04/14 05:21:03;;;;;;;6.43;4.63;;;;;;;6.73;54.36;101462.25;4974071;28;20058;-79
2021/04/14 05:23:49;;;;;;;5.70;3.47;;;;;;;6.81;51.35;101467.09;4969724;28;20130;-78
2021/04/14 05:26:35;;;;;;;6.82;3.83;;;;;;;6.96;50.61;101466.25;4983244;28;20063;-79
2021/04/14 05:29:20;;;;;;;9.45;3.92;;;;;;;7.07;49.32;101467.06;4980456;28;20510;-78
2021/04/14 05:32:05;;;;;;;8.95;3.13;;;;;;;7.26;49.96;101477.03;4992983;28;20514;-78
2021/04/14 05:34:50;;;;;;;4.85;3.42;;;;;;;7.38;49.51;101475.91;4975641;28;20608;-79
2021/04/14 05:37:35;;;;;;;4.63;3.20;;;;;;;7.61;49.49;101473.41;4980823;28;20053;-78
2021/04/14 05:40:22;;;;;;;5.22;3.10;;;;;;;7.57;51.00;101479.63;4993018;28;20044;-78
2021/04/14 05:43:16;;;;;;;7.55;4.78;;;;;;;7.72;51.11;101483.09;5001082;28;20048;-78
2021/04/14 05:46:05;;;;;;;8.68;4.22;;;;;;;7.43;54.25;101490.25;5010893;23;20415;-77
2021/04/14 05:48:50;;;;;;;10.43;4.80;;;;;;;7.47;54.82;101485.09;4989407;28;20064;-77
2021/04/14 05:51:36;;;;;;;10.40;5.80;;;;;;;7.63;55.07;101486.66;4998342;28;20057;-76
2021/04/14 05:54:21;;;;;;;10.70;4.13;;;;;;;7.72;55.72;101479.56;4997190;28;20049;-76
2021/04/14 05:57:06;;;;;;;5.78;3.40;;;;;;;7.85;55.37;101479.00;4995258;28;20045;-77
2021/04/14 05:59:51;;;;;;;10.75;6.32;;;;;;;8.03;55.41;101485.66;4998127;28;20053;-76
2021/04/14 06:02:40;;;;;;;14.15;6.43;;;;;;;8.09;56.54;101484.56;4996035;28;20053;-76
2021/04/14 06:05:25;;;;;;;10.05;6.53;;;;;;;8.11;57.03;101488.63;4995645;28;20049;-76
2021/04/14 06:08:10;;;;;;;14.68;8.38;;;;;;;8.21;58.40;101482.31;5000474;28;20165;-77
2021/04/14 06:10:59;;;;;;;10.63;6.55;;;;;;;8.32;59.45;101489.34;4999140;28;20057;-78
2021/04/14 06:13:45;;;;;;;11.55;7.40;;;;;;;8.37;59.60;101496.63;4981139;28;20062;-77
2021/04/14 06:16:30;;;;;;;14.98;9.23;;;;;;;8.58;59.71;101493.47;4993901;28;20061;-77
2021/04/14 06:19:15;;;;;;;12.60;7.53;;;;;;;8.72;60.27;101501.78;4997289;28;20077;-77
2021/04/14 06:22:01;;;;;;;17.48;9.57;;;;;;;8.90;60.47;101497.53;4994981;28;20070;-78
2021/04/14 06:24:46;;;;;;;16.33;9.07;;;;;;;9.11;60.25;101490.84;4998951;28;20053;-76
2021/04/14 06:27:38;;;;;;;11.23;6.65;;;;;;;9.02;60.81;101508.84;4997062;28;20053;-76
2021/04/14 06:30:24;;;;;;;16.80;9.07;;;;;;;9.07;61.04;101508.81;4980090;28;20077;-76
2021/04/14 06:33:10;;;;;;;13.55;8.32;;;;;;;9.05;61.20;101502.84;4998486;28;20065;-77
2021/04/14 06:35:56;;;;;;;17.17;9.77;;;;;;;9.12;60.67;101508.75;4981458;28;20049;-75
2021/04/14 06:38:44;;;;;;;16.15;9.57;;;;;;;9.28;60.51;101517.56;4980063;28;20418;-76
2021/04/14 06:42:30;;;;;;;22.92;8.80;;;;;;;9.48;60.85;101527.38;4985955;28;20065;-77
2021/04/14 06:45:23;;;;;;;18.70;8.57;;;;;;;9.48;60.56;101527.38;4906793;29;20059;-78
2021/04/14 06:48:17;;;;;;;19.05;9.00;;;;;;;9.38;61.08;101520.97;4919534;29;20141;-77
2021/04/14 06:51:08;;;;;;;17.02;8.73;;;;;;;9.44;61.31;101519.84;4980400;28;20058;-78
2021/04/14 06:54:08;;;;;;;15.10;8.52;;;;;;;9.64;59.80;101520.69;4985276;28;20049;-78
2021/04/14 06:57:02;;;;;;;19.05;9.02;;;;;;;9.76;59.85;101527.34;4996447;28;20068;-77
2021/04/14 06:59:52;;;;;;;16.38;8.82;;;;;;;9.66;59.13;101521.19;4994676;28;20065;-78
2021/04/14 07:03:03;;;;;;;16.73;8.32;;;;;;;9.72;57.81;101528.19;4983684;28;20053;-77
2021/04/14 07:06:00;;;;;;;15.43;8.90;;;;;;;9.77;57.64;101528.94;4994484;28;20049;-76
2021/04/14 07:08:59;;;;;;;15.68;8.43;;;;;;;9.94;55.21;101523.06;4997268;28;20422;-77
2021/04/14 07:11:44;;;;;;;17.73;9.68;;;;;;;9.87;56.11;101536.16;4980203;28;20067;-76
2021/04/14 07:14:29;;;;;;;23.08;9.48;;;;;;;9.99;54.59;101528.44;4984236;28;20053;-77
2021/04/14 07:17:29;;;;;;;13.73;8.63;;;;;;;10.09;54.14;101531.00;4997159;28;20061;-77
2021/04/14 07:20:37;;;;;;;17.02;9.63;;;;;;;10.28;52.87;101534.59;4993498;28;20521;-76
2021/04/14 07:24:03;;;;;;;15.63;9.27;;;;;;;10.42;52.30;101540.09;4978801;28;20054;-76
2021/04/14 07:26:58;;;;;;;22.90;6.95;;;;;;;10.53;52.12;101541.56;4992562;28;20053;-76
2021/04/14 07:29:47;;;;;;;8.70;6.23;;;;;;;10.48;51.51;101546.25;4997229;28;20057;-77
2021/04/14 07:33:16;;;;;;;12.00;7.25;;;;;;;10.63;51.73;101541.41;4979730;28;20045;-76
2021/04/14 07:36:05;;;;;;;10.25;5.20;;;;;;;10.81;49.67;101545.22;4983854;28;20038;-78
2021/04/14 07:39:18;;;;;;;8.73;5.28;;;;;;;10.91;48.67;101544.25;4979969;28;20081;-79
2021/04/14 07:42:47;;;;;;;11.40;5.88;;;;;;;10.85;46.90;101540.81;4982126;28;20045;-76
2021/04/14 07:45:37;;;;;;;12.40;5.00;;;;;;;11.19;45.57;101550.59;4916495;29;20066;-77
2021/04/14 07:48:30;;;;;;;10.77;4.78;;;;;;;11.13;44.75;101549.84;4917588;29;20058;-77
2021/04/14 07:51:18;;;;;;;9.75;5.22;;;;;;;11.28;45.36;101548.78;4976317;28;20530;-79
2021/04/14 07:54:13;;;;;;;11.65;5.05;;;;;;;11.28;45.89;101549.59;4983179;28;20138;-79
2021/04/14 07:56:58;;;;;;;12.50;4.35;;;;;;;11.39;46.11;101536.59;4978308;28;20061;-76
2021/04/14 07:59:44;;;;;;;6.63;4.10;;;;;;;11.44;45.90;101550.94;4979574;28;20053;-76
2021/04/14 08:02:32;;;;;;;10.68;5.13;;;;;;;11.63;46.00;101556.28;4982771;28;20057;-75
2021/04/14 08:05:27;;;;;;;10.75;5.03;;;;;;;11.63;45.84;101558.25;4995822;28;20049;-76
2021/04/14 08:08:24;;;;;;;6.93;4.50;;;;;;;11.57;45.42;101549.34;4992382;28;20410;-78
2021/04/14 08:11:16;;;;;;;6.10;4.53;;;;;;;11.69;44.21;101555.09;4996895;28;20407;-78
2021/04/14 08:14:16;;;;;;;9.88;4.68;;;;;;;11.83;43.32;101550.50;4980275;28;20069;-78
2021/04/14 08:17:18;;;;;;;8.75;4.78;;;;;;;11.92;43.21;101554.13;4984231;28;20406;-77
2021/04/14 08:20:08;;;;;;;9.50;4.43;;;;;;;12.08;43.68;101556.56;4995780;28;20414;-78
2021/04/14 08:23:24;;;;;;;7.03;4.47;;;;;;;12.13;44.06;101557.25;4993753;28;20055;-77
2021/04/14 08:26:16;;;;;;;11.80;5.22;;;;;;;12.35;44.62;101553.75;4994829;28;20053;-78
2021/04/14 08:29:15;;;;;;;8.05;4.65;;;;;;;12.37;44.36;101552.38;4979505;28;20046;-77
2021/04/14 08:32:01;;;;;;;7.55;4.75;;;;;;;12.67;42.31;101550.06;4982523;28;20053;-77
2021/04/14 08:34:58;;;;;;;8.18;3.83;;;;;;;12.65;41.66;101547.63;4993064;28;20049;-78
2021/04/14 08:37:43;;;;;;;7.35;4.28;;;;;;;12.76;40.60;101553.66;4982946;28;20189;-79
2021/04/14 08:40:31;;;;;;;5.35;3.08;;;;;;;12.95;34.55;101542.56;4981647;28;20053;-77
2021/04/14 08:43:23;;;;;;;6.70;3.85;;;;;;;13.03;36.43;101541.81;4993220;28;20053;-76
2021/04/14 08:46:15;;;;;;;7.97;3.75;;;;;;;13.12;37.00;101550.88;4992617;28;20406;-77
2021/04/14 08:49:14;;;;;;;7.63;4.03;;;;;;;13.20;37.02;101550.16;4980748;28;20052;-77
2021/04/14 08:51:59;;;;;;;4.82;3.53;;;;;;;13.39;35.81;101545.28;4978025;28;20415;-76
2021/04/14 08:54:44;;;;;;;4.18;3.10;;;;;;;13.26;36.69;101546.16;4996569;28;20058;-76
2021/04/14 08:57:28;;;;;;;6.20;3.78;;;;;;;13.31;35.71;101543.28;4980339;28;20042;-75
2021/04/14 09:00:14;;;;;;;8.20;3.90;;;;;;;13.34;37.73;101545.41;4979084;28;20069;-78
2021/04/14 09:03:09;;;;;;;7.72;4.28;;;;;;;13.38;37.88;101548.31;4982423;28;20049;-79
2021/04/14 09:05:54;;;;;;;5.35;3.30;;;;;;;13.39;34.45;101542.53;4994800;28;20053;-79
2021/04/14 09:08:47;;;;;;;6.25;3.40;;;;;;;13.36;35.32;101556.81;4978577;28;20533;-77
2021/04/14 09:11:33;;;;;;;6.60;3.00;;;;;;;13.40;34.84;101548.81;4982326;28;20062;-78
2021/04/14 09:14:22;;;;;;;5.07;3.03;;;;;;;13.40;33.00;101537.88;4980072;28;20066;-76
2021/04/14 09:17:13;;;;;;;6.03;3.08;;;;;;;13.32;32.56;101544.91;4978473;28;20053;-78
2021/04/14 09:20:10;;;;;;;5.78;3.10;;;;;;;13.48;32.96;101534.38;4996164;28;20057;-79
2021/04/14 09:23:16;;;;;;;5.97;3.55;;;;;;;13.67;32.57;101545.88;4979137;28;20058;-79
2021/04/14 09:26:12;;;;;;;5.88;3.50;;;;;;;13.94;32.73;101539.38;4979357;28;20406;-77
2021/04/14 09:28:58;;;;;;;4.50;3.25;;;;;;;13.88;32.30;101535.16;4981034;28;20045;-77
2021/04/14 09:31:51;;;;;;;6.50;3.38;;;;;;;14.05;31.81;101540.69;4993851;28;20065;-78
2021/04/14 09:34:43;;;;;;;7.65;3.40;;;;;;;14.00;30.78;101538.91;4983037;28;20053;-76
2021/04/14 09:37:32;;;;;;;6.80;3.50;;;;;;;13.95;30.19;101530.88;5007964;28;20045;-79
2021/04/14 09:40:33;;;;;;;7.07;3.65;;;;;;;14.07;31.34;101525.56;5009705;28;20069;-79
2021/04/14 09:43:35;;;;;;;7.25;3.05;;;;;;;14.14;31.22;101533.31;4990530;28;20049;-78
2021/04/14 09:46:38;;;;;;;9.23;3.42;;;;;;;14.29;29.75;101530.13;4989294;28;20057;-80
2021/04/14 09:49:39;;;;;;;5.43;3.15;;;;;;;14.46;29.00;101527.44;5008735;28;20517;-81
2021/04/14 09:52:31;;;;;;;7.88;3.47;;;;;;;14.21;29.89;101536.41;5005586;28;20057;-81
2021/04/14 09:55:32;;;;;;;6.05;3.17;;;;;;;14.41;30.62;101524.06;4994227;28;20049;-80
2021/04/14 09:58:24;;;;;;;8.98;3.55;;;;;;;14.52;29.35;101530.81;4991386;28;20049;-79
2021/04/14 10:01:15;;;;;;;6.60;3.50;;;;;;;14.35;31.46;101520.63;4994202;28;20053;-80
2021/04/14 10:04:21;;;;;;;5.15;3.65;;;;;;;14.39;30.79;101516.16;5005255;28;20052;-79
2021/04/14 10:07:13;;;;;;;4.80;2.80;;;;;;;14.74;23.17;101510.66;4986798;28;20045;-78
2021/04/14 10:10:16;;;;;;;4.70;2.92;;;;;;;15.05;24.43;101507.72;5004818;28;20136;-79
2021/04/14 10:13:08;;;;;;;4.07;2.53;;;;;;;15.00;26.10;101505.97;5001370;28;20045;-80
2021/04/14 10:15:53;;;;;;;8.38;3.10;;;;;;;14.95;26.61;101506.13;4988466;28;20057;-79
2021/04/14 10:18:42;;;;;;;5.43;2.90;;;;;;;14.96;25.70;101496.78;4988817;28;20049;-78
2021/04/14 10:21:28;;;;;;;4.15;2.40;;;;;;;14.93;23.70;101486.50;4997777;28;20057;-78
2021/04/14 10:24:17;;;;;;;5.85;2.60;;;;;;;14.94;23.65;101488.91;4999882;28;20045;-77
2021/04/14 10:27:03;;;;;;;6.60;3.15;;;;;;;15.00;25.86;101495.00;4986732;28;20661;-80
2021/04/14 10:29:49;;;;;;;6.55;3.20;;;;;;;15.08;25.10;101483.25;4999034;28;20054;-80
2021/04/14 10:32:34;;;;;;;5.15;2.60;;;;;;;15.08;25.77;101479.69;5002647;28;20053;-79
2021/04/14 10:35:26;;;;;;;5.15;2.83;;;;;;;15.47;24.56;101482.13;4985621;28;20065;-81
2021/04/14 10:38:13;;;;;;;7.63;3.42;;;;;;;15.56;24.51;101473.88;4988892;28;20057;-78
2021/04/14 10:40:58;;;;;;;4.53;2.75;;;;;;;15.80;23.53;101483.09;5001496;28;20049;-78
2021/04/14 10:43:44;;;;;;;5.35;3.33;;;;;;;15.90;23.90;101473.69;4985315;28;20061;-79
2021/04/14 10:46:35;;;;;;;5.57;3.28;;;;;;;15.79;22.56;101469.75;4998493;28;20041;-78
2021/04/14 10:49:30;;;;;;;5.18;3.28;;;;;;;15.82;24.52;101466.31;4985240;28;20057;-76
2021/04/14 10:52:28;;;;;;;5.55;3.33;;;;;;;15.81;23.70;101462.78;4981919;28;20104;-77
2021/04/14 10:55:17;;;;;;;6.30;3.17;;;;;;;15.91;24.30;101464.31;4999741;28;20053;-77
2021/04/14 10:58:05;;;;;;;6.30;3.20;;;;;;;15.75;24.51;101460.56;4999491;28;20506;-78
2021/04/14 11:00:51;;;;;;;7.97;3.05;;;;;;;15.47;25.58;101449.25;4997895;28;20110;-80
2021/04/14 11:03:37;;;;;;;5.78;3.58;;;;;;;15.56;25.54;101449.22;4973583;28;20049;-80
2021/04/14 11:06:22;;;;;;;5.03;2.85;;;;;;;15.66;24.54;101443.34;4997534;28;20406;-80
2021/04/14 11:09:08;;;;;;;;;;;;;;;15.66;24.09;101441.41;4983967;28;20053;-80
2021/04/14 11:11:53;;;;;;;5.35;3.13;;;;;;;15.81;23.47;101432.63;4986242;28;19917;-78
2021/04/14 11:14:40;;;;;;;6.47;3.67;;;;;;;15.97;22.81;101430.09;4984922;28;20521;-79
2021/04/14 11:17:32;;;;;;;5.07;2.67;;;;;;;15.94;22.56;101433.50;4982593;28;20049;-80
2021/04/14 11:20:18;;;;;;;5.20;3.20;;;;;;;16.02;23.35;101427.13;4985352;28;20058;-79
2021/04/14 11:23:03;;;;;;;7.70;3.50;;;;;;;16.18;24.86;101425.41;4998667;28;20064;-79
2021/04/14 11:25:49;;;;;;;4.53;2.55;;;;;;;16.19;23.97;101423.47;4997059;28;20101;-81
2021/04/14 11:28:44;;;;;;;7.60;4.00;;;;;;;16.21;25.08;101410.19;5008811;28;20065;-82
2021/04/14 11:31:36;;;;;;;4.20;2.42;;;;;;;16.13;23.99;101414.63;4997781;28;20050;-80
2021/04/14 11:34:25;;;;;;;5.95;2.63;;;;;;;16.20;26.43;101414.88;4995308;28;20049;-79
2021/04/14 11:37:25;;;;;;;5.93;4.15;;;;;;;15.81;25.53;101415.34;4999014;28;20041;-80
2021/04/14 11:40:13;;;;;;;5.18;2.97;;;;;;;15.86;25.19;101417.91;4996272;28;20052;-80
2021/04/14 11:43:03;;;;;;;5.88;3.55;;;;;;;16.02;25.46;101407.13;4992163;28;20045;-79
2021/04/14 11:46:03;;;;;;;6.63;3.38;;;;;;;16.05;26.22;101401.00;4991966;28;20061;-80
2021/04/14 11:48:56;;;;;;;6.90;3.42;;;;;;;16.20;25.27;101403.91;4993214;28;20044;-78
2021/04/14 11:51:44;;;;;;;5.15;2.95;;;;;;;16.12;27.33;101401.25;5010051;28;20552;-77
2021/04/14 11:54:36;;;;;;;5.45;3.10;;;;;;;16.20;27.81;101408.63;5005414;28;20406;-79
2021/04/14 11:57:30;;;;;;;9.70;3.53;;;;;;;16.36;28.26;101406.03;4989357;28;20509;-79
2021/04/14 12:00:15;;;;;;;6.07;3.40;;;;;;;16.51;29.98;101399.91;5006513;28;20065;-77
2021/04/14 12:03:12;;;;;;;9.50;4.07;;;;;;;16.37;26.51;101394.72;4988459;28;20509;-79
2021/04/14 12:05:58;;;;;;;3.65;2.97;;;;;;;16.03;24.28;101387.59;5003321;28;20044;-78
2021/04/14 12:08:43;;;;;;;4.25;3.15;;;;;;;15.96;25.67;101389.25;5023347;23;20045;-80
2021/04/14 12:11:28;;;;;;;7.05;3.28;;;;;;;16.10;25.65;101392.56;5000005;28;20060;-80
2021/04/14 12:14:13;;;;;;;4.07;2.63;;;;;;;16.35;24.91;101399.75;5006443;28;20449;-80
2021/04/14 12:16:58;;;;;;;4.75;3.20;;;;;;;16.40;25.64;101396.81;5003467;28;20052;-79
2021/04/14 12:19:44;;;;;;;5.28;3.45;;;;;;;16.43;26.20;101393.38;5013215;28;20064;-80
2021/04/14 12:22:29;;;;;;;3.28;2.72;;;;;;;16.46;25.89;101394.63;5014337;28;20049;-80
2021/04/14 12:25:15;;;;;;;4.72;2.75;;;;;;;16.54;26.99;101388.25;4986624;28;20049;-81
2021/04/14 12:28:01;;;;;;;5.07;3.08;;;;;;;16.51;24.38;101383.44;4993008;28;20058;-81
2021/04/14 12:30:45;;;;;;;13.80;3.60;;;;;;;16.55;26.04;101387.13;4991557;28;20065;-82
2021/04/14 12:33:32;;;;;;;9.05;2.50;;;;;;;16.48;25.42;101376.69;4996209;28;20049;-80
2021/04/14 12:36:17;;;;;;;12.68;3.17;;;;;;;16.70;30.74;101388.44;4994327;28;20046;-82
2021/04/14 12:39:03;;;;;;;5.65;4.03;;;;;;;16.31;24.90;101382.34;4991276;28;20049;-81
2021/04/14 12:41:48;;;;;;;5.63;3.63;;;;;;;15.93;26.58;101370.75;4996243;28;20053;-80
2021/04/14 12:44:33;;;;;;;6.13;3.05;;;;;;;15.94;26.18;101370.41;4993380;28;20414;-80
2021/04/14 12:47:20;;;;;;;;;;;;;;;15.87;26.10;101377.56;4973436;28;20522;-79
2021/04/14 12:50:05;;;;;;;6.53;3.22;;;;;;;15.81;23.82;101365.97;5001525;28;19926;-79
2021/04/14 12:52:54;;;;;;;4.32;3.30;;;;;;;15.77;25.26;101365.06;4997928;28;20041;-80
2021/04/14 12:55:47;;;;;;;7.55;4.43;;;;;;;15.65;23.30;101371.25;4981005;28;20065;-80
2021/04/14 12:58:42;;;;;;;4.93;3.53;;;;;;;15.93;24.45;101368.00;4998908;28;20540;-78
2021/04/14 13:01:29;;;;;;;9.63;3.70;;;;;;;15.87;24.74;101361.09;4999707;28;20053;-79
2021/04/14 13:04:25;;;;;;;6.28;3.40;;;;;;;16.02;24.02;101350.31;4996671;28;20046;-81
2021/04/14 13:07:23;;;;;;;7.35;3.08;;;;;;;16.15;26.48;101351.19;5004590;28;20060;-79
2021/04/14 13:10:09;;;;;;;7.38;3.72;;;;;;;16.13;25.60;101348.78;5012863;28;20060;-79
2021/04/14 13:12:54;;;;;;;10.93;4.10;;;;;;;16.24;28.84;101343.69;5018156;28;20402;-79